sensor_id;sensor_type;location;lat;lon;timestamp;temperature;humidity
10964;DHT22;5534;48.784;9.190;2024-02-14T00:02:16;8.10;99.90
10964;DHT22;5534;48.784;9.190;2024-02-14T00:04:42;8.10;99.90
10964;DHT22;5534;48.784;9.190;2024-02-14T00:07:08;8.20;99.90
10964;DHT22;5534;48.784;9.190;2024-02-14T00:09:34;8.30;99.90
10964;DHT22;5534;48.784;9.190;2024-02-14T00:12:00;8.30;99.90
10964;DHT22;5534;48.784;9.190;2024-02-14T00:14:25;8.30;99.90
10964;DHT22;5534;48.784;9.190;2024-02-14T00:16:51;8.50;99.90
10964;DHT22;5534;48.784;9.190;2024-02-14T00:19:16;8.40;99.90
10964;DHT22;5534;48.784;9.190;2024-02-14T00:21:42;8.40;99.90
10964;DHT22;5534;48.784;9.190;2024-02-14T00:24:08;8.40;99.90
10964;DHT22;5534;48.784;9.190;2024-02-14T00:26:33;8.50;99.90
10964;DHT22;5534;48.784;9.190;2024-02-14T00:28:59;8.40;99.90
10964;DHT22;5534;48.784;9.190;2024-02-14T00:31:25;8.40;99.90
10964;DHT22;5534;48.784;9.190;2024-02-14T00:33:51;8.40;99.90
10964;DHT22;5534;48.784;9.190;2024-02-14T00:36:16;8.40;99.90
10964;DHT22;5534;48.784;9.190;2024-02-14T00:38:43;8.40;99.90
10964;DHT22;5534;48.784;9.190;2024-02-14T00:41:11;8.30;99.90
10964;DHT22;5534;48.784;9.190;2024-02-14T00:43:36;8.30;99.90
10964;DHT22;5534;48.784;9.190;2024-02-14T00:46:02;8.40;99.90
10964;DHT22;5534;48.784;9.190;2024-02-14T00:48:27;8.50;99.90
10964;DHT22;5534;48.784;9.190;2024-02-14T00:50:53;8.50;99.90
10964;DHT22;5534;48.784;9.190;2024-02-14T00:53:19;8.50;99.90
10964;DHT22;5534;48.784;9.190;2024-02-14T00:55:46;8.60;99.90
10964;DHT22;5534;48.784;9.190;2024-02-14T00:58:11;8.60;99.90
10964;DHT22;5534;48.784;9.190;2024-02-14T01:00:37;8.60;99.90
10964;DHT22;5534;48.784;9.190;2024-02-14T01:03:06;8.60;99.90
10964;DHT22;5534;48.784;9.190;2024-02-14T01:05:33;8.60;99.90
10964;DHT22;5534;48.784;9.190;2024-02-14T01:08:01;8.70;99.90
10964;DHT22;5534;48.784;9.190;2024-02-14T01:10:30;8.60;99.90
10964;DHT22;5534;48.784;9.190;2024-02-14T01:12:57;8.70;99.90
10964;DHT22;5534;48.784;9.190;2024-02-14T01:15:22;8.60;99.90
10964;DHT22;5534;48.784;9.190;2024-02-14T01:17:48;8.60;99.90
10964;DHT22;5534;48.784;9.190;2024-02-14T01:20:13;8.70;99.90
10964;DHT22;5534;48.784;9.190;2024-02-14T01:22:40;8.70;99.90
10964;DHT22;5534;48.784;9.190;2024-02-14T01:25:06;8.90;99.90
10964;DHT22;5534;48.784;9.190;2024-02-14T01:27:32;8.80;99.90
10964;DHT22;5534;48.784;9.190;2024-02-14T01:29:57;8.70;99.90
10964;DHT22;5534;48.784;9.190;2024-02-14T01:32:23;8.80;99.90
10964;DHT22;5534;48.784;9.190;2024-02-14T01:34:49;8.90;99.90
10964;DHT22;5534;48.784;9.190;2024-02-14T01:37:14;8.90;99.90
10964;DHT22;5534;48.784;9.190;2024-02-14T01:39:40;8.90;99.90
10964;DHT22;5534;48.784;9.190;2024-02-14T01:42:06;8.80;99.90
10964;DHT22;5534;48.784;9.190;2024-02-14T01:44:33;9.00;99.90
10964;DHT22;5534;48.784;9.190;2024-02-14T01:47:00;9.00;99.90
10964;DHT22;5534;48.784;9.190;2024-02-14T01:49:26;9.00;99.90
10964;DHT22;5534;48.784;9.190;2024-02-14T01:51:55;9.00;99.90
10964;DHT22;5534;48.784;9.190;2024-02-14T01:54:25;9.00;99.90
10964;DHT22;5534;48.784;9.190;2024-02-14T01:56:51;9.00;99.90
10964;DHT22;5534;48.784;9.190;2024-02-14T01:59:17;8.90;99.90
10964;DHT22;5534;48.784;9.190;2024-02-14T02:01:43;9.10;99.90
10964;DHT22;5534;48.784;9.190;2024-02-14T02:04:09;8.80;99.90
10964;DHT22;5534;48.784;9.190;2024-02-14T02:06:35;9.00;99.90
10964;DHT22;5534;48.784;9.190;2024-02-14T02:09:01;9.00;99.90
10964;DHT22;5534;48.784;9.190;2024-02-14T02:11:26;8.90;99.90
10964;DHT22;5534;48.784;9.190;2024-02-14T02:13:52;9.10;99.90
10964;DHT22;5534;48.784;9.190;2024-02-14T02:16:18;9.00;99.90
10964;DHT22;5534;48.784;9.190;2024-02-14T02:18:47;9.00;99.90
10964;DHT22;5534;48.784;9.190;2024-02-14T02:21:14;8.90;99.90
10964;DHT22;5534;48.784;9.190;2024-02-14T02:23:39;9.00;99.90
10964;DHT22;5534;48.784;9.190;2024-02-14T02:26:09;9.00;99.90
10964;DHT22;5534;48.784;9.190;2024-02-14T02:28:36;9.10;99.90
10964;DHT22;5534;48.784;9.190;2024-02-14T02:31:02;9.20;99.90
10964;DHT22;5534;48.784;9.190;2024-02-14T02:33:27;9.20;99.90
10964;DHT22;5534;48.784;9.190;2024-02-14T02:35:53;9.20;99.90
10964;DHT22;5534;48.784;9.190;2024-02-14T02:38:19;9.20;99.90
10964;DHT22;5534;48.784;9.190;2024-02-14T02:40:47;9.20;99.90
10964;DHT22;5534;48.784;9.190;2024-02-14T02:43:12;9.30;99.90
10964;DHT22;5534;48.784;9.190;2024-02-14T02:45:38;9.30;99.90
10964;DHT22;5534;48.784;9.190;2024-02-14T02:48:04;9.30;99.90
10964;DHT22;5534;48.784;9.190;2024-02-14T02:50:31;9.30;99.90
10964;DHT22;5534;48.784;9.190;2024-02-14T02:52:59;9.20;99.90
10964;DHT22;5534;48.784;9.190;2024-02-14T02:55:26;9.20;99.90
10964;DHT22;5534;48.784;9.190;2024-02-14T02:57:51;9.10;99.90
10964;DHT22;5534;48.784;9.190;2024-02-14T03:00:18;9.00;99.90
10964;DHT22;5534;48.784;9.190;2024-02-14T03:02:46;9.10;99.90
10964;DHT22;5534;48.784;9.190;2024-02-14T03:05:12;9.10;99.90
10964;DHT22;5534;48.784;9.190;2024-02-14T03:07:44;9.10;99.90
10964;DHT22;5534;48.784;9.190;2024-02-14T03:10:11;9.10;99.90
10964;DHT22;5534;48.784;9.190;2024-02-14T03:12:39;9.00;99.90
10964;DHT22;5534;48.784;9.190;2024-02-14T03:15:05;8.80;99.90
10964;DHT22;5534;48.784;9.190;2024-02-14T03:17:31;9.00;99.90
10964;DHT22;5534;48.784;9.190;2024-02-14T03:19:57;8.80;99.90
10964;DHT22;5534;48.784;9.190;2024-02-14T03:22:23;8.90;99.90
10964;DHT22;5534;48.784;9.190;2024-02-14T03:24:48;8.90;99.90
10964;DHT22;5534;48.784;9.190;2024-02-14T03:27:14;8.90;99.90
10964;DHT22;5534;48.784;9.190;2024-02-14T03:29:40;9.00;99.90
10964;DHT22;5534;48.784;9.190;2024-02-14T03:32:06;9.00;99.90
10964;DHT22;5534;48.784;9.190;2024-02-14T03:34:33;9.00;99.90
10964;DHT22;5534;48.784;9.190;2024-02-14T03:37:01;9.00;99.90
10964;DHT22;5534;48.784;9.190;2024-02-14T03:39:30;8.90;99.90
10964;DHT22;5534;48.784;9.190;2024-02-14T03:41:56;8.90;99.90
10964;DHT22;5534;48.784;9.190;2024-02-14T03:44:22;8.70;99.90
10964;DHT22;5534;48.784;9.190;2024-02-14T03:46:49;8.30;99.90
10964;DHT22;5534;48.784;9.190;2024-02-14T03:49:14;8.10;99.90
10964;DHT22;5534;48.784;9.190;2024-02-14T03:51:40;8.50;99.90
10964;DHT22;5534;48.784;9.190;2024-02-14T03:54:06;8.80;99.90
10964;DHT22;5534;48.784;9.190;2024-02-14T03:56:31;8.80;99.90
10964;DHT22;5534;48.784;9.190;2024-02-14T03:58:59;8.90;99.90
10964;DHT22;5534;48.784;9.190;2024-02-14T04:01:25;8.90;99.90
10964;DHT22;5534;48.784;9.190;2024-02-14T04:03:50;9.00;99.90
10964;DHT22;5534;48.784;9.190;2024-02-14T04:06:16;9.10;99.90
10964;DHT22;5534;48.784;9.190;2024-02-14T04:08:43;9.10;99.90
10964;DHT22;5534;48.784;9.190;2024-02-14T04:11:08;9.10;99.90
10964;DHT22;5534;48.784;9.190;2024-02-14T04:13:35;9.10;99.90
10964;DHT22;5534;48.784;9.190;2024-02-14T04:16:00;9.20;99.90
10964;DHT22;5534;48.784;9.190;2024-02-14T04:18:26;9.10;99.90
10964;DHT22;5534;48.784;9.190;2024-02-14T04:20:51;9.20;99.90
10964;DHT22;5534;48.784;9.190;2024-02-14T04:23:17;9.30;99.90
10964;DHT22;5534;48.784;9.190;2024-02-14T04:25:43;9.30;99.90
10964;DHT22;5534;48.784;9.190;2024-02-14T04:28:09;9.30;99.90
10964;DHT22;5534;48.784;9.190;2024-02-14T04:30:37;9.40;99.90
10964;DHT22;5534;48.784;9.190;2024-02-14T04:33:03;9.30;99.90
10964;DHT22;5534;48.784;9.190;2024-02-14T04:35:30;9.30;99.90
10964;DHT22;5534;48.784;9.190;2024-02-14T04:37:55;9.30;99.90
10964;DHT22;5534;48.784;9.190;2024-02-14T04:40:22;9.20;99.90
10964;DHT22;5534;48.784;9.190;2024-02-14T04:42:47;9.00;99.90
10964;DHT22;5534;48.784;9.190;2024-02-14T04:45:13;9.00;99.90
10964;DHT22;5534;48.784;9.190;2024-02-14T04:47:39;8.80;99.90
10964;DHT22;5534;48.784;9.190;2024-02-14T04:50:05;8.80;99.90
10964;DHT22;5534;48.784;9.190;2024-02-14T04:52:31;8.90;99.90
10964;DHT22;5534;48.784;9.190;2024-02-14T04:54:57;9.10;99.90
10964;DHT22;5534;48.784;9.190;2024-02-14T04:57:22;9.10;99.90
10964;DHT22;5534;48.784;9.190;2024-02-14T04:59:48;9.30;99.90
10964;DHT22;5534;48.784;9.190;2024-02-14T05:02:14;9.40;99.90
10964;DHT22;5534;48.784;9.190;2024-02-14T05:04:40;9.40;99.90
10964;DHT22;5534;48.784;9.190;2024-02-14T05:07:05;9.50;99.90
10964;DHT22;5534;48.784;9.190;2024-02-14T05:09:31;9.50;99.90
10964;DHT22;5534;48.784;9.190;2024-02-14T05:11:57;9.50;99.90
10964;DHT22;5534;48.784;9.190;2024-02-14T05:14:23;9.50;99.90
10964;DHT22;5534;48.784;9.190;2024-02-14T05:16:49;9.50;99.90
10964;DHT22;5534;48.784;9.190;2024-02-14T05:19:15;9.60;99.90
10964;DHT22;5534;48.784;9.190;2024-02-14T05:21:40;9.60;99.90
10964;DHT22;5534;48.784;9.190;2024-02-14T05:24:06;9.60;99.90
10964;DHT22;5534;48.784;9.190;2024-02-14T05:26:34;9.60;99.90
10964;DHT22;5534;48.784;9.190;2024-02-14T05:29:00;9.70;99.90
10964;DHT22;5534;48.784;9.190;2024-02-14T05:31:45;9.80;99.90
10964;DHT22;5534;48.784;9.190;2024-02-14T05:34:11;9.70;99.90
10964;DHT22;5534;48.784;9.190;2024-02-14T05:36:37;9.70;99.90
10964;DHT22;5534;48.784;9.190;2024-02-14T05:39:03;9.70;99.90
10964;DHT22;5534;48.784;9.190;2024-02-14T05:41:30;9.70;99.90
10964;DHT22;5534;48.784;9.190;2024-02-14T05:43:58;9.70;99.90
10964;DHT22;5534;48.784;9.190;2024-02-14T05:46:24;9.70;99.90
10964;DHT22;5534;48.784;9.190;2024-02-14T05:48:50;9.80;99.90
10964;DHT22;5534;48.784;9.190;2024-02-14T05:51:18;9.60;99.90
10964;DHT22;5534;48.784;9.190;2024-02-14T05:53:43;9.50;99.90
10964;DHT22;5534;48.784;9.190;2024-02-14T05:56:09;9.80;99.90
10964;DHT22;5534;48.784;9.190;2024-02-14T05:58:35;9.60;99.90
10964;DHT22;5534;48.784;9.190;2024-02-14T06:01:01;9.70;99.90
10964;DHT22;5534;48.784;9.190;2024-02-14T06:03:26;9.60;99.90
10964;DHT22;5534;48.784;9.190;2024-02-14T06:05:52;9.70;99.90
10964;DHT22;5534;48.784;9.190;2024-02-14T06:08:18;9.60;99.90
10964;DHT22;5534;48.784;9.190;2024-02-14T06:10:47;9.50;99.90
10964;DHT22;5534;48.784;9.190;2024-02-14T06:13:14;9.50;99.90
10964;DHT22;5534;48.784;9.190;2024-02-14T06:15:39;9.60;99.90
10964;DHT22;5534;48.784;9.190;2024-02-14T06:18:05;9.70;99.90
10964;DHT22;5534;48.784;9.190;2024-02-14T06:20:31;9.60;99.90
10964;DHT22;5534;48.784;9.190;2024-02-14T06:22:57;9.60;99.90
10964;DHT22;5534;48.784;9.190;2024-02-14T06:25:23;9.70;99.90
10964;DHT22;5534;48.784;9.190;2024-02-14T06:27:48;9.60;99.90
10964;DHT22;5534;48.784;9.190;2024-02-14T06:30:14;9.60;99.90
10964;DHT22;5534;48.784;9.190;2024-02-14T06:32:42;9.60;99.90
10964;DHT22;5534;48.784;9.190;2024-02-14T06:35:08;9.60;99.90
10964;DHT22;5534;48.784;9.190;2024-02-14T06:37:33;9.60;99.90
10964;DHT22;5534;48.784;9.190;2024-02-14T06:39:59;9.60;99.90
10964;DHT22;5534;48.784;9.190;2024-02-14T06:42:24;9.60;99.90
10964;DHT22;5534;48.784;9.190;2024-02-14T06:44:50;9.80;99.90
10964;DHT22;5534;48.784;9.190;2024-02-14T06:47:16;9.70;99.90
10964;DHT22;5534;48.784;9.190;2024-02-14T06:49:41;9.80;99.90
10964;DHT22;5534;48.784;9.190;2024-02-14T06:52:07;9.80;99.90
10964;DHT22;5534;48.784;9.190;2024-02-14T06:54:32;9.80;99.90
10964;DHT22;5534;48.784;9.190;2024-02-14T06:56:58;9.80;99.90
10964;DHT22;5534;48.784;9.190;2024-02-14T06:59:25;9.90;99.90
10964;DHT22;5534;48.784;9.190;2024-02-14T07:01:54;9.80;99.90
10964;DHT22;5534;48.784;9.190;2024-02-14T07:04:23;9.80;99.90
10964;DHT22;5534;48.784;9.190;2024-02-14T07:06:53;9.90;99.90
10964;DHT22;5534;48.784;9.190;2024-02-14T07:09:19;10.00;99.90
10964;DHT22;5534;48.784;9.190;2024-02-14T07:11:45;9.80;99.90
10964;DHT22;5534;48.784;9.190;2024-02-14T07:14:11;9.90;99.90
10964;DHT22;5534;48.784;9.190;2024-02-14T07:16:37;9.90;99.90
10964;DHT22;5534;48.784;9.190;2024-02-14T07:19:03;10.00;99.90
10964;DHT22;5534;48.784;9.190;2024-02-14T07:21:28;10.00;99.90
10964;DHT22;5534;48.784;9.190;2024-02-14T07:23:54;9.70;99.90
10964;DHT22;5534;48.784;9.190;2024-02-14T07:26:19;9.70;99.90
10964;DHT22;5534;48.784;9.190;2024-02-14T07:28:45;9.90;99.90
10964;DHT22;5534;48.784;9.190;2024-02-14T07:31:11;10.00;99.90
10964;DHT22;5534;48.784;9.190;2024-02-14T07:33:37;10.10;99.90
10964;DHT22;5534;48.784;9.190;2024-02-14T07:36:03;10.10;99.90
10964;DHT22;5534;48.784;9.190;2024-02-14T07:38:28;10.20;99.90
10964;DHT22;5534;48.784;9.190;2024-02-14T07:40:54;10.10;99.90
10964;DHT22;5534;48.784;9.190;2024-02-14T07:43:19;10.20;99.90
10964;DHT22;5534;48.784;9.190;2024-02-14T07:45:45;10.20;99.90
10964;DHT22;5534;48.784;9.190;2024-02-14T07:48:12;10.30;99.90
10964;DHT22;5534;48.784;9.190;2024-02-14T07:50:38;10.30;99.90
10964;DHT22;5534;48.784;9.190;2024-02-14T07:53:04;10.30;99.90
10964;DHT22;5534;48.784;9.190;2024-02-14T07:55:30;10.40;99.90
10964;DHT22;5534;48.784;9.190;2024-02-14T07:57:55;10.40;99.90
10964;DHT22;5534;48.784;9.190;2024-02-14T08:00:21;10.30;99.90
10964;DHT22;5534;48.784;9.190;2024-02-14T08:02:49;10.30;99.90
10964;DHT22;5534;48.784;9.190;2024-02-14T08:05:15;10.20;99.90
10964;DHT22;5534;48.784;9.190;2024-02-14T08:07:41;10.20;99.90
10964;DHT22;5534;48.784;9.190;2024-02-14T08:10:06;10.10;99.90
10964;DHT22;5534;48.784;9.190;2024-02-14T08:12:32;10.20;99.90
10964;DHT22;5534;48.784;9.190;2024-02-14T08:14:59;10.20;99.90
10964;DHT22;5534;48.784;9.190;2024-02-14T08:17:30;10.20;99.90
10964;DHT22;5534;48.784;9.190;2024-02-14T08:19:55;10.20;99.90
10964;DHT22;5534;48.784;9.190;2024-02-14T08:22:21;10.10;99.90
10964;DHT22;5534;48.784;9.190;2024-02-14T08:24:46;10.20;99.90
10964;DHT22;5534;48.784;9.190;2024-02-14T08:27:12;10.20;99.90
10964;DHT22;5534;48.784;9.190;2024-02-14T08:29:38;10.30;99.90
10964;DHT22;5534;48.784;9.190;2024-02-14T08:32:03;10.20;99.90
10964;DHT22;5534;48.784;9.190;2024-02-14T08:34:30;10.20;99.90
10964;DHT22;5534;48.784;9.190;2024-02-14T08:36:56;10.30;99.90
10964;DHT22;5534;48.784;9.190;2024-02-14T08:39:21;10.30;99.90
10964;DHT22;5534;48.784;9.190;2024-02-14T08:41:50;10.40;99.90
10964;DHT22;5534;48.784;9.190;2024-02-14T08:44:15;10.50;99.90
10964;DHT22;5534;48.784;9.190;2024-02-14T08:46:44;10.50;99.90
10964;DHT22;5534;48.784;9.190;2024-02-14T08:49:13;10.60;99.90
10964;DHT22;5534;48.784;9.190;2024-02-14T08:51:39;10.70;99.90
10964;DHT22;5534;48.784;9.190;2024-02-14T08:54:05;10.70;99.90
10964;DHT22;5534;48.784;9.190;2024-02-14T08:56:34;10.80;99.90
10964;DHT22;5534;48.784;9.190;2024-02-14T08:59:04;10.90;99.90
10964;DHT22;5534;48.784;9.190;2024-02-14T09:01:32;10.90;99.90
10964;DHT22;5534;48.784;9.190;2024-02-14T09:03:58;11.00;99.90
10964;DHT22;5534;48.784;9.190;2024-02-14T09:06:24;11.10;99.90
10964;DHT22;5534;48.784;9.190;2024-02-14T09:08:51;11.20;99.90
10964;DHT22;5534;48.784;9.190;2024-02-14T09:11:17;11.30;99.90
10964;DHT22;5534;48.784;9.190;2024-02-14T09:13:43;11.30;99.90
10964;DHT22;5534;48.784;9.190;2024-02-14T09:16:10;11.20;99.90
10964;DHT22;5534;48.784;9.190;2024-02-14T09:18:37;11.10;99.90
10964;DHT22;5534;48.784;9.190;2024-02-14T09:21:05;11.10;99.90
10964;DHT22;5534;48.784;9.190;2024-02-14T09:23:31;11.10;99.90
10964;DHT22;5534;48.784;9.190;2024-02-14T09:25:57;11.10;99.90
10964;DHT22;5534;48.784;9.190;2024-02-14T09:28:23;11.20;99.90
10964;DHT22;5534;48.784;9.190;2024-02-14T09:30:50;11.20;99.90
10964;DHT22;5534;48.784;9.190;2024-02-14T09:33:16;11.40;99.90
10964;DHT22;5534;48.784;9.190;2024-02-14T09:35:42;11.30;99.90
10964;DHT22;5534;48.784;9.190;2024-02-14T09:38:11;11.40;99.90
10964;DHT22;5534;48.784;9.190;2024-02-14T09:40:43;11.40;99.90
10964;DHT22;5534;48.784;9.190;2024-02-14T09:43:38;11.50;99.90
10964;DHT22;5534;48.784;9.190;2024-02-14T09:46:07;11.50;99.90
10964;DHT22;5534;48.784;9.190;2024-02-14T09:48:33;11.60;99.90
10964;DHT22;5534;48.784;9.190;2024-02-14T09:50:59;11.80;99.90
10964;DHT22;5534;48.784;9.190;2024-02-14T09:53:28;11.80;99.90
10964;DHT22;5534;48.784;9.190;2024-02-14T09:55:56;11.80;99.90
10964;DHT22;5534;48.784;9.190;2024-02-14T09:58:22;11.80;99.90
10964;DHT22;5534;48.784;9.190;2024-02-14T10:00:50;11.90;99.90
10964;DHT22;5534;48.784;9.190;2024-02-14T10:03:16;12.00;99.90
10964;DHT22;5534;48.784;9.190;2024-02-14T10:05:42;12.00;99.90
10964;DHT22;5534;48.784;9.190;2024-02-14T10:08:08;12.00;99.90
10964;DHT22;5534;48.784;9.190;2024-02-14T10:10:35;12.20;99.90
10964;DHT22;5534;48.784;9.190;2024-02-14T10:13:03;12.40;99.90
10964;DHT22;5534;48.784;9.190;2024-02-14T10:15:32;12.60;99.90
10964;DHT22;5534;48.784;9.190;2024-02-14T10:17:58;12.70;99.90
10964;DHT22;5534;48.784;9.190;2024-02-14T10:20:25;12.70;99.90
10964;DHT22;5534;48.784;9.190;2024-02-14T10:22:52;12.70;99.90
10964;DHT22;5534;48.784;9.190;2024-02-14T10:25:17;12.70;99.90
10964;DHT22;5534;48.784;9.190;2024-02-14T10:27:44;12.70;99.90
10964;DHT22;5534;48.784;9.190;2024-02-14T10:30:12;12.60;99.90
10964;DHT22;5534;48.784;9.190;2024-02-14T10:32:39;12.80;99.90
10964;DHT22;5534;48.784;9.190;2024-02-14T10:35:06;12.90;99.90
10964;DHT22;5534;48.784;9.190;2024-02-14T10:37:37;13.00;99.90
10964;DHT22;5534;48.784;9.190;2024-02-14T10:40:04;13.10;99.90
10964;DHT22;5534;48.784;9.190;2024-02-14T10:42:33;13.20;99.90
10964;DHT22;5534;48.784;9.190;2024-02-14T10:44:59;13.40;99.90
10964;DHT22;5534;48.784;9.190;2024-02-14T10:47:31;13.40;99.90
10964;DHT22;5534;48.784;9.190;2024-02-14T10:50:04;13.40;99.90
10964;DHT22;5534;48.784;9.190;2024-02-14T10:52:40;13.50;99.90
10964;DHT22;5534;48.784;9.190;2024-02-14T10:55:06;13.50;99.90
10964;DHT22;5534;48.784;9.190;2024-02-14T10:57:32;13.70;99.90
10964;DHT22;5534;48.784;9.190;2024-02-14T11:00:02;13.80;99.90
10964;DHT22;5534;48.784;9.190;2024-02-14T11:02:28;13.70;99.90
10964;DHT22;5534;48.784;9.190;2024-02-14T11:04:56;13.80;99.90
10964;DHT22;5534;48.784;9.190;2024-02-14T11:07:22;13.70;99.90
10964;DHT22;5534;48.784;9.190;2024-02-14T11:09:59;13.80;99.90
10964;DHT22;5534;48.784;9.190;2024-02-14T11:12:25;13.80;99.90
10964;DHT22;5534;48.784;9.190;2024-02-14T11:14:51;14.00;99.90
10964;DHT22;5534;48.784;9.190;2024-02-14T11:17:23;13.80;99.90
10964;DHT22;5534;48.784;9.190;2024-02-14T11:19:52;13.80;99.90
10964;DHT22;5534;48.784;9.190;2024-02-14T11:22:19;13.90;99.90
10964;DHT22;5534;48.784;9.190;2024-02-14T11:24:46;13.80;99.90
10964;DHT22;5534;48.784;9.190;2024-02-14T11:27:12;13.80;99.90
10964;DHT22;5534;48.784;9.190;2024-02-14T11:29:39;13.70;99.90
10964;DHT22;5534;48.784;9.190;2024-02-14T11:32:09;13.70;99.90
10964;DHT22;5534;48.784;9.190;2024-02-14T11:34:36;13.50;99.90
10964;DHT22;5534;48.784;9.190;2024-02-14T11:37:02;13.50;99.90
10964;DHT22;5534;48.784;9.190;2024-02-14T11:39:28;13.50;99.90
10964;DHT22;5534;48.784;9.190;2024-02-14T11:41:57;13.50;99.90
10964;DHT22;5534;48.784;9.190;2024-02-14T11:44:23;13.40;99.90
10964;DHT22;5534;48.784;9.190;2024-02-14T11:46:49;13.60;99.90
10964;DHT22;5534;48.784;9.190;2024-02-14T11:49:15;13.70;99.90
10964;DHT22;5534;48.784;9.190;2024-02-14T11:51:42;13.50;99.90
10964;DHT22;5534;48.784;9.190;2024-02-14T11:54:09;13.40;99.90
10964;DHT22;5534;48.784;9.190;2024-02-14T11:56:38;13.40;99.90
10964;DHT22;5534;48.784;9.190;2024-02-14T11:59:05;13.50;99.90
10964;DHT22;5534;48.784;9.190;2024-02-14T12:01:35;13.60;99.90
10964;DHT22;5534;48.784;9.190;2024-02-14T12:04:02;13.70;99.90
10964;DHT22;5534;48.784;9.190;2024-02-14T12:06:31;13.70;99.90
10964;DHT22;5534;48.784;9.190;2024-02-14T12:08:58;13.60;99.90
10964;DHT22;5534;48.784;9.190;2024-02-14T12:11:27;13.50;99.90
10964;DHT22;5534;48.784;9.190;2024-02-14T12:13:54;13.50;99.90
10964;DHT22;5534;48.784;9.190;2024-02-14T12:16:20;13.50;99.90
10964;DHT22;5534;48.784;9.190;2024-02-14T12:18:49;13.50;99.90
10964;DHT22;5534;48.784;9.190;2024-02-14T12:21:15;13.60;99.90
10964;DHT22;5534;48.784;9.190;2024-02-14T12:23:41;13.80;99.90
10964;DHT22;5534;48.784;9.190;2024-02-14T12:26:07;14.00;99.90
10964;DHT22;5534;48.784;9.190;2024-02-14T12:28:33;14.40;99.90
10964;DHT22;5534;48.784;9.190;2024-02-14T12:30:59;14.40;99.90
10964;DHT22;5534;48.784;9.190;2024-02-14T12:33:26;14.40;99.90
10964;DHT22;5534;48.784;9.190;2024-02-14T12:35:54;14.30;99.90
10964;DHT22;5534;48.784;9.190;2024-02-14T12:38:21;14.30;99.90
10964;DHT22;5534;48.784;9.190;2024-02-14T12:40:51;14.30;99.90
10964;DHT22;5534;48.784;9.190;2024-02-14T12:43:19;14.30;99.90
10964;DHT22;5534;48.784;9.190;2024-02-14T12:45:45;14.30;99.90
10964;DHT22;5534;48.784;9.190;2024-02-14T12:48:12;14.30;99.90
10964;DHT22;5534;48.784;9.190;2024-02-14T12:50:39;14.30;99.90
10964;DHT22;5534;48.784;9.190;2024-02-14T12:53:08;14.40;99.90
10964;DHT22;5534;48.784;9.190;2024-02-14T12:55:36;14.40;99.90
10964;DHT22;5534;48.784;9.190;2024-02-14T12:58:02;14.40;99.90
10964;DHT22;5534;48.784;9.190;2024-02-14T13:00:32;14.50;99.90
10964;DHT22;5534;48.784;9.190;2024-02-14T13:02:57;14.50;99.90
10964;DHT22;5534;48.784;9.190;2024-02-14T13:05:23;14.60;99.90
10964;DHT22;5534;48.784;9.190;2024-02-14T13:07:51;14.70;99.90
10964;DHT22;5534;48.784;9.190;2024-02-14T13:10:19;14.80;99.90
10964;DHT22;5534;48.784;9.190;2024-02-14T13:12:45;14.80;99.90
10964;DHT22;5534;48.784;9.190;2024-02-14T13:15:11;14.80;99.90
10964;DHT22;5534;48.784;9.190;2024-02-14T13:17:37;14.70;99.90
10964;DHT22;5534;48.784;9.190;2024-02-14T13:20:03;14.50;99.90
10964;DHT22;5534;48.784;9.190;2024-02-14T13:22:28;14.50;99.90
10964;DHT22;5534;48.784;9.190;2024-02-14T13:24:55;14.50;99.90
10964;DHT22;5534;48.784;9.190;2024-02-14T13:27:26;14.60;99.90
10964;DHT22;5534;48.784;9.190;2024-02-14T13:29:51;14.50;99.90
10964;DHT22;5534;48.784;9.190;2024-02-14T13:32:17;14.60;99.90
10964;DHT22;5534;48.784;9.190;2024-02-14T13:34:44;14.60;99.90
10964;DHT22;5534;48.784;9.190;2024-02-14T13:37:10;14.60;99.90
10964;DHT22;5534;48.784;9.190;2024-02-14T13:39:36;14.70;99.90
10964;DHT22;5534;48.784;9.190;2024-02-14T13:42:02;14.80;99.90
10964;DHT22;5534;48.784;9.190;2024-02-14T13:44:28;14.70;99.90
10964;DHT22;5534;48.784;9.190;2024-02-14T13:46:54;14.80;99.90
10964;DHT22;5534;48.784;9.190;2024-02-14T13:49:20;14.70;99.90
10964;DHT22;5534;48.784;9.190;2024-02-14T13:51:51;14.70;99.90
10964;DHT22;5534;48.784;9.190;2024-02-14T13:54:26;14.70;99.90
10964;DHT22;5534;48.784;9.190;2024-02-14T13:56:52;14.60;99.90
10964;DHT22;5534;48.784;9.190;2024-02-14T13:59:18;14.50;99.90
10964;DHT22;5534;48.784;9.190;2024-02-14T14:01:46;14.60;99.90
10964;DHT22;5534;48.784;9.190;2024-02-14T14:04:12;14.60;99.90
10964;DHT22;5534;48.784;9.190;2024-02-14T14:06:38;14.60;99.90
10964;DHT22;5534;48.784;9.190;2024-02-14T14:09:05;14.60;99.90
10964;DHT22;5534;48.784;9.190;2024-02-14T14:11:35;14.70;99.90
10964;DHT22;5534;48.784;9.190;2024-02-14T14:14:01;14.70;99.90
10964;DHT22;5534;48.784;9.190;2024-02-14T14:16:26;14.70;99.90
10964;DHT22;5534;48.784;9.190;2024-02-14T14:18:52;14.60;99.90
10964;DHT22;5534;48.784;9.190;2024-02-14T14:21:18;14.60;99.90
10964;DHT22;5534;48.784;9.190;2024-02-14T14:23:44;14.60;99.90
10964;DHT22;5534;48.784;9.190;2024-02-14T14:26:10;14.60;99.90
10964;DHT22;5534;48.784;9.190;2024-02-14T14:28:35;14.60;99.90
10964;DHT22;5534;48.784;9.190;2024-02-14T14:31:01;14.60;99.90
10964;DHT22;5534;48.784;9.190;2024-02-14T14:33:28;14.60;99.90
10964;DHT22;5534;48.784;9.190;2024-02-14T14:35:54;14.60;99.90
10964;DHT22;5534;48.784;9.190;2024-02-14T14:38:20;14.60;99.90
10964;DHT22;5534;48.784;9.190;2024-02-14T14:40:47;14.60;99.90
10964;DHT22;5534;48.784;9.190;2024-02-14T14:43:13;14.60;99.90
10964;DHT22;5534;48.784;9.190;2024-02-14T14:45:39;14.60;99.90
10964;DHT22;5534;48.784;9.190;2024-02-14T14:48:06;14.50;99.90
10964;DHT22;5534;48.784;9.190;2024-02-14T14:50:34;14.50;99.90
10964;DHT22;5534;48.784;9.190;2024-02-14T14:53:00;14.40;99.90
10964;DHT22;5534;48.784;9.190;2024-02-14T14:55:55;14.40;99.90
10964;DHT22;5534;48.784;9.190;2024-02-14T14:58:22;14.40;99.90
10964;DHT22;5534;48.784;9.190;2024-02-14T15:00:52;14.50;99.90
10964;DHT22;5534;48.784;9.190;2024-02-14T15:03:20;14.60;99.90
10964;DHT22;5534;48.784;9.190;2024-02-14T15:05:46;14.50;99.90
10964;DHT22;5534;48.784;9.190;2024-02-14T15:08:13;14.50;99.90
10964;DHT22;5534;48.784;9.190;2024-02-14T15:10:39;14.60;99.90
10964;DHT22;5534;48.784;9.190;2024-02-14T15:13:08;14.50;99.90
10964;DHT22;5534;48.784;9.190;2024-02-14T15:15:39;14.50;99.90
10964;DHT22;5534;48.784;9.190;2024-02-14T15:18:05;14.50;99.90
10964;DHT22;5534;48.784;9.190;2024-02-14T15:20:31;14.40;99.90
10964;DHT22;5534;48.784;9.190;2024-02-14T15:22:57;14.40;99.90
10964;DHT22;5534;48.784;9.190;2024-02-14T15:25:22;14.40;99.90
10964;DHT22;5534;48.784;9.190;2024-02-14T15:27:51;14.50;99.90
10964;DHT22;5534;48.784;9.190;2024-02-14T15:30:21;14.60;99.90
10964;DHT22;5534;48.784;9.190;2024-02-14T15:33:06;14.60;99.90
10964;DHT22;5534;48.784;9.190;2024-02-14T15:35:54;14.50;99.90
10964;DHT22;5534;48.784;9.190;2024-02-14T15:38:21;14.50;99.90
10964;DHT22;5534;48.784;9.190;2024-02-14T15:40:50;14.60;99.90
10964;DHT22;5534;48.784;9.190;2024-02-14T15:43:20;14.60;99.90
10964;DHT22;5534;48.784;9.190;2024-02-14T15:45:47;14.60;99.90
10964;DHT22;5534;48.784;9.190;2024-02-14T15:48:13;14.50;99.90
10964;DHT22;5534;48.784;9.190;2024-02-14T15:50:41;14.60;99.90